createdAt,value
2017-11-10T00:01:12.712Z,23.33
2017-11-10T00:03:40.243Z,23.27
2017-11-10T00:06:08.772Z,22.67
2017-11-10T00:08:36.312Z,22.77
2017-11-10T00:11:03.881Z,26.77
2017-11-10T00:13:31.417Z,23.33
2017-11-10T00:15:58.991Z,25.70
2017-11-10T00:18:26.521Z,26.80
2017-11-10T00:20:54.856Z,26.70
2017-11-10T00:23:22.384Z,26.10
2017-11-10T00:25:49.945Z,23.60
2017-11-10T00:28:17.490Z,23.70
2017-11-10T00:30:45.051Z,21.23
2017-11-10T00:33:12.588Z,23.53
2017-11-10T00:35:40.929Z,23.60
2017-11-10T00:38:08.469Z,21.03
2017-11-10T00:40:36.033Z,24.33
2017-11-10T00:43:03.564Z,22.83
2017-11-10T00:45:31.887Z,22.80
2017-11-10T00:47:59.429Z,22.77
2017-11-10T00:50:26.985Z,24.40
2017-11-10T00:52:54.522Z,23.67
2017-11-10T00:55:22.079Z,23.20
2017-11-10T00:57:50.377Z,23.70
2017-11-10T01:00:17.929Z,23.33
2017-11-10T01:02:45.468Z,24.10
2017-11-10T01:05:13.787Z,25.10
2017-11-10T01:07:41.324Z,25.10
2017-11-10T01:10:08.880Z,25.93
2017-11-10T01:12:36.487Z,25.17
2017-11-10T01:15:04.048Z,23.60
2017-11-10T01:17:31.576Z,24.90
2017-11-10T01:19:59.137Z,23.30
2017-11-10T01:22:26.678Z,25.57
2017-11-10T01:24:54.265Z,25.00
2017-11-10T01:27:21.804Z,24.10
2017-11-10T01:29:49.343Z,25.50
2017-11-10T01:32:17.668Z,24.73
2017-11-10T01:34:45.200Z,26.00
2017-11-10T01:37:12.764Z,27.57
2017-11-10T01:39:40.295Z,27.40
2017-11-10T01:42:08.672Z,27.40
2017-11-10T01:44:36.980Z,26.30
2017-11-10T01:47:04.539Z,27.23
2017-11-10T01:49:32.077Z,28.43
2017-11-10T01:52:00.402Z,28.60
2017-11-10T01:54:27.983Z,28.10
2017-11-10T01:56:55.543Z,27.23
2017-11-10T01:59:23.089Z,26.10
2017-11-10T02:01:50.649Z,27.17
2017-11-10T02:04:18.194Z,26.50
2017-11-10T02:06:45.753Z,30.00
2017-11-10T02:09:13.283Z,29.23
2017-11-10T02:11:40.859Z,27.50
2017-11-10T02:14:08.396Z,30.90
2017-11-10T02:16:36.715Z,27.90
2017-11-10T02:19:04.248Z,28.93
2017-11-10T02:21:31.808Z,29.33
2017-11-10T02:23:59.339Z,30.13
2017-11-10T02:26:27.667Z,31.77
2017-11-10T02:28:55.191Z,32.10
2017-11-10T02:31:23.520Z,29.23
2017-11-10T02:33:51.048Z,31.93
2017-11-10T02:36:18.608Z,30.50
2017-11-10T02:38:48.029Z,30.90
2017-11-10T02:41:15.603Z,32.27
2017-11-10T02:43:43.127Z,29.20
2017-11-10T02:46:10.684Z,30.70
2017-11-10T02:48:38.220Z,31.40
2017-11-10T02:51:06.544Z,29.57
2017-11-10T02:53:34.086Z,32.63
2017-11-10T02:56:01.648Z,29.97
2017-11-10T02:58:29.185Z,32.20
2017-11-10T03:00:56.757Z,30.93
2017-11-10T03:03:24.295Z,29.13
2017-11-10T03:05:52.628Z,31.40
2017-11-10T03:08:20.169Z,29.10
2017-11-10T03:10:47.727Z,31.40
2017-11-10T03:13:15.272Z,29.07
2017-11-10T03:15:42.835Z,28.70
2017-11-10T03:18:10.372Z,28.17
2017-11-10T03:20:38.705Z,28.70
2017-11-10T03:23:06.244Z,26.83
2017-11-10T03:25:33.800Z,28.07
2017-11-10T03:28:01.336Z,27.90
2017-11-10T03:30:29.657Z,26.30
2017-11-10T03:32:57.193Z,27.30
2017-11-10T03:35:24.729Z,26.80
2017-11-10T03:37:53.048Z,27.37
2017-11-10T03:40:20.591Z,28.40
2017-11-10T03:42:48.149Z,25.97
2017-11-10T03:45:15.685Z,26.27
2017-11-10T03:47:44.015Z,27.20
2017-11-10T03:50:11.553Z,26.07
2017-11-10T03:52:39.202Z,24.10
2017-11-10T03:55:06.740Z,28.10
2017-11-10T03:57:35.068Z,28.10
2017-11-10T04:00:02.600Z,26.33
2017-11-10T04:02:30.161Z,29.33
2017-11-10T04:04:57.702Z,29.27
2017-11-10T04:07:26.026Z,28.17
2017-11-10T04:09:53.573Z,29.67
2017-11-10T04:12:21.138Z,28.50
2017-11-10T04:14:48.680Z,29.23
2017-11-10T04:17:16.240Z,26.90
2017-11-10T04:19:43.767Z,28.10
2017-11-10T04:22:12.097Z,27.97
2017-11-10T04:24:39.640Z,27.17
2017-11-10T04:27:07.199Z,28.27
2017-11-10T04:29:34.733Z,28.20
2017-11-10T04:32:02.312Z,28.60
2017-11-10T04:34:29.843Z,28.27
2017-11-10T04:36:57.403Z,27.83
2017-11-10T04:39:25.711Z,29.67
2017-11-10T04:41:53.273Z,30.47
2017-11-10T04:44:20.816Z,29.57
2017-11-10T04:46:49.139Z,28.47
2017-11-10T04:49:16.739Z,28.77
2017-11-10T04:51:45.061Z,29.17
2017-11-10T04:54:12.876Z,30.83
2017-11-10T04:56:40.475Z,28.07
2017-11-10T04:59:08.015Z,27.73
2017-11-10T05:01:36.342Z,27.70
2017-11-10T05:04:03.888Z,27.13
2017-11-10T05:06:31.453Z,26.30
2017-11-10T05:08:59.756Z,28.20
2017-11-10T05:11:27.334Z,30.40
2017-11-10T05:13:55.649Z,28.67
2017-11-10T05:16:23.203Z,31.83
2017-11-10T05:18:50.759Z,30.00
2017-11-10T05:21:18.332Z,29.00
2017-11-10T05:23:45.863Z,31.83
2017-11-10T05:26:14.200Z,31.00
2017-11-10T05:28:41.724Z,30.97
2017-11-10T05:31:09.277Z,32.00
2017-11-10T05:33:36.807Z,32.60
2017-11-10T05:36:04.339Z,33.60
2017-11-10T05:38:31.891Z,31.70
2017-11-10T05:40:59.419Z,31.57
2017-11-10T05:43:26.976Z,33.17
2017-11-10T05:45:54.753Z,34.00
2017-11-10T05:48:22.319Z,33.50
2017-11-10T05:50:49.848Z,34.50
2017-11-10T05:53:18.176Z,36.07
2017-11-10T05:55:45.714Z,36.43
2017-11-10T05:58:13.269Z,37.93
2017-11-10T06:00:40.806Z,40.33
2017-11-10T06:03:09.133Z,39.03
2017-11-10T06:05:36.681Z,40.40
2017-11-10T06:08:04.236Z,39.90
2017-11-10T06:10:31.778Z,38.37
2017-11-10T06:12:59.348Z,37.87
2017-11-10T06:15:26.896Z,36.80
2017-11-10T06:17:54.450Z,40.20
2017-11-10T06:20:21.992Z,38.50
2017-11-10T06:22:50.315Z,38.93
2017-11-10T06:25:17.847Z,36.70
2017-11-10T06:27:45.408Z,36.23
2017-11-10T06:30:12.944Z,38.10
2017-11-10T06:32:41.273Z,34.50
2017-11-10T06:35:08.800Z,34.10
2017-11-10T06:37:36.361Z,37.13
2017-11-10T06:40:03.898Z,34.00
2017-11-10T06:42:32.224Z,34.73
2017-11-10T06:44:59.760Z,39.20
2017-11-10T06:47:27.643Z,38.53
2017-11-10T06:52:48.989Z,34.57
2017-11-10T06:55:16.528Z,40.30
2017-11-10T06:57:44.084Z,45.50
2017-11-10T07:00:11.613Z,39.93
2017-11-10T07:02:39.172Z,39.53
2017-11-10T07:05:06.707Z,38.60
2017-11-10T07:07:35.503Z,37.50
2017-11-10T07:10:03.053Z,39.07
2017-11-10T07:12:30.635Z,38.60
2017-11-10T07:14:58.172Z,37.93
2017-11-10T07:17:26.480Z,35.33
2017-11-10T07:19:54.037Z,36.67
2017-11-10T07:22:21.572Z,37.60
2017-11-10T07:24:49.151Z,38.90
2017-11-10T07:27:16.683Z,36.57
2017-11-10T07:29:44.239Z,41.70
2017-11-10T07:32:11.779Z,39.20
2017-11-10T07:34:39.339Z,41.70
2017-11-10T07:37:06.868Z,41.13
2017-11-10T07:39:35.201Z,40.70
2017-11-10T07:42:02.738Z,36.53
2017-11-10T07:44:30.291Z,37.17
2017-11-10T07:46:57.841Z,39.73
2017-11-10T07:49:25.410Z,39.23
2017-11-10T07:51:52.945Z,39.53
2017-11-10T07:54:21.272Z,38.27
2017-11-10T07:56:48.804Z,35.77
2017-11-10T07:59:16.372Z,36.10
2017-11-10T08:01:43.904Z,35.70
2017-11-10T08:04:12.239Z,38.63
2017-11-10T08:06:39.776Z,39.50
2017-11-10T08:09:07.341Z,38.60
2017-11-10T08:11:34.886Z,35.20
2017-11-10T08:14:02.447Z,36.87
2017-11-10T08:16:29.984Z,36.87
2017-11-10T08:18:58.301Z,38.60
2017-11-10T08:21:25.835Z,35.80
2017-11-10T08:23:53.392Z,36.47
2017-11-10T08:26:20.923Z,38.50
2017-11-10T08:28:48.485Z,36.87
2017-11-10T08:31:16.791Z,37.90
2017-11-10T08:33:44.356Z,32.17
2017-11-10T08:36:11.895Z,33.20
2017-11-10T08:38:40.219Z,36.57
2017-11-10T08:41:07.752Z,34.00
2017-11-10T08:43:35.313Z,33.10
2017-11-10T08:46:02.839Z,30.07
2017-11-10T08:48:31.168Z,31.87
2017-11-10T08:50:58.696Z,32.40
2017-11-10T08:53:26.256Z,33.30
2017-11-10T08:55:53.788Z,30.90
2017-11-10T08:58:21.347Z,31.50
2017-11-10T09:00:48.883Z,33.87
2017-11-10T09:03:16.440Z,30.50
2017-11-10T09:05:43.981Z,34.53
2017-11-10T09:08:11.545Z,32.70
2017-11-10T09:10:39.072Z,30.90
2017-11-10T09:13:06.641Z,31.90
2017-11-10T09:15:34.176Z,32.50
2017-11-10T09:18:02.500Z,32.10
2017-11-10T09:20:30.027Z,31.30
2017-11-10T09:22:57.563Z,28.50
2017-11-10T09:25:25.125Z,30.13
2017-11-10T09:31:15.234Z,30.30
2017-11-10T09:33:53.490Z,28.60
2017-11-10T09:39:27.636Z,26.03
2017-11-10T09:41:59.939Z,26.67
2017-11-10T09:44:33.122Z,26.93
2017-11-10T09:50:11.392Z,27.60
2017-11-10T09:52:44.719Z,27.30
2017-11-10T09:55:28.172Z,26.30
2017-11-10T09:58:01.424Z,24.77
2017-11-10T10:00:38.903Z,25.37
2017-11-10T10:03:19.918Z,26.47
2017-11-10T10:06:02.360Z,24.57
2017-11-10T10:08:35.564Z,25.80
2017-11-10T10:11:09.526Z,26.00
2017-11-10T10:13:42.864Z,28.93
2017-11-10T10:16:17.004Z,26.50
2017-11-10T10:18:48.192Z,27.93
2017-11-10T10:21:21.724Z,28.77
2017-11-10T10:23:49.256Z,29.77
2017-11-10T10:26:16.807Z,26.57
2017-11-10T10:28:44.339Z,28.27
2017-11-10T10:31:11.900Z,28.53
2017-11-10T10:33:39.434Z,27.10
2017-11-10T10:36:07.757Z,26.73
2017-11-10T10:38:35.291Z,27.17
2017-11-10T10:41:02.852Z,25.90
2017-11-10T10:43:30.386Z,27.80
2017-11-10T10:45:58.712Z,31.30
2017-11-10T10:48:26.249Z,27.27
2017-11-10T10:50:53.834Z,26.07
2017-11-10T10:53:21.363Z,25.00
2017-11-10T10:55:48.898Z,26.07
2017-11-10T10:58:17.226Z,25.00
2017-11-10T11:00:44.760Z,22.17
2017-11-10T11:03:12.320Z,22.27
2017-11-10T11:05:39.859Z,21.37
2017-11-10T11:08:08.191Z,20.60
2017-11-10T11:10:35.723Z,18.60
2017-11-10T11:13:03.328Z,17.60
2017-11-10T11:15:30.839Z,17.33
2017-11-10T11:17:58.404Z,17.00
2017-11-10T11:20:25.939Z,18.80
2017-11-10T11:22:54.271Z,16.87
2017-11-10T11:25:21.808Z,17.27
2017-11-10T11:27:49.360Z,18.00
2017-11-10T11:30:16.892Z,18.93
2017-11-10T11:32:45.226Z,19.80
2017-11-10T11:35:13.528Z,19.23
2017-11-10T11:37:41.090Z,17.23
2017-11-10T11:40:08.619Z,15.57
2017-11-10T11:42:36.183Z,17.50
2017-11-10T11:45:04.016Z,17.90
2017-11-10T11:47:31.582Z,16.63
2017-11-10T11:49:59.120Z,16.00
2017-11-10T11:52:27.440Z,16.40
2017-11-10T11:54:54.985Z,15.43
2017-11-10T11:57:22.537Z,16.13
2017-11-10T11:59:50.077Z,15.20
2017-11-10T12:02:18.401Z,14.57
2017-11-10T12:04:45.944Z,15.80
2017-11-10T12:07:13.505Z,17.60
2017-11-10T12:09:41.038Z,15.73
2017-11-10T12:12:08.613Z,16.27
2017-11-10T12:14:36.143Z,15.93
2017-11-10T12:17:04.471Z,16.23
2017-11-10T12:19:32.005Z,17.60
2017-11-10T12:21:59.565Z,18.13
2017-11-10T12:24:27.101Z,22.17
2017-11-10T12:26:55.399Z,16.87
2017-11-10T12:29:22.960Z,18.13
2017-11-10T12:31:50.493Z,16.10
2017-11-10T12:34:18.818Z,16.30
2017-11-10T12:36:46.353Z,16.40
2017-11-10T12:39:13.917Z,17.60
2017-11-10T12:41:41.452Z,18.53
2017-11-10T12:44:09.785Z,17.87
2017-11-10T12:46:37.316Z,14.57
2017-11-10T12:49:04.876Z,16.27
2017-11-10T12:51:32.412Z,16.20
2017-11-10T12:54:00.733Z,16.90
2017-11-10T12:56:28.555Z,14.73
2017-11-10T12:58:56.880Z,15.60
2017-11-10T13:01:24.410Z,13.90
2017-11-10T13:03:51.972Z,15.87
2017-11-10T13:06:19.503Z,14.20
2017-11-10T13:08:47.831Z,15.77
2017-11-10T13:11:15.374Z,17.60
2017-11-10T13:13:42.933Z,23.60
2017-11-10T13:16:10.471Z,24.67
2017-11-10T13:18:38.790Z,17.80
2017-11-10T13:21:06.329Z,15.20
2017-11-10T13:23:33.893Z,11.63
2017-11-10T13:26:01.420Z,12.10
2017-11-10T13:28:29.752Z,8.90
2017-11-10T13:30:57.284Z,11.77
2017-11-10T13:33:24.843Z,12.20
2017-11-10T13:35:52.372Z,10.10
2017-11-10T13:38:20.688Z,8.87
2017-11-10T13:40:48.221Z,8.03
2017-11-10T13:43:16.538Z,7.80
2017-11-10T13:45:44.087Z,7.23
2017-11-10T13:48:11.643Z,7.97
2017-11-10T13:50:39.172Z,7.43
2017-11-10T13:53:07.495Z,7.63
2017-11-10T13:55:35.028Z,7.60
2017-11-10T13:58:02.587Z,8.03
2017-11-10T14:00:30.124Z,7.67
2017-11-10T14:02:58.449Z,9.33
2017-11-10T14:05:25.976Z,8.97
2017-11-10T14:07:54.881Z,8.80
2017-11-10T14:10:22.417Z,7.73
2017-11-10T14:12:50.744Z,7.77
2017-11-10T14:15:41.760Z,7.07
2017-11-10T14:18:09.324Z,8.63
2017-11-10T14:20:36.849Z,8.50
2017-11-10T14:23:04.408Z,8.07
2017-11-10T14:25:31.935Z,7.83
2017-11-10T14:28:00.262Z,7.73
2017-11-10T14:30:27.792Z,6.67
2017-11-10T14:32:56.107Z,6.80
2017-11-10T14:35:23.636Z,6.37
2017-11-10T14:37:51.184Z,7.37
2017-11-10T14:40:19.468Z,5.63
2017-11-10T14:42:47.019Z,4.80
2017-11-10T14:45:14.556Z,4.93
2017-11-10T14:47:42.105Z,4.70
2017-11-10T14:50:09.640Z,6.03
2017-11-10T14:52:37.189Z,4.73
2017-11-10T14:55:04.741Z,4.60
2017-11-10T14:57:32.271Z,4.83
2017-11-10T15:00:00.591Z,3.97
2017-11-10T15:02:28.114Z,4.80
2017-11-10T15:04:56.429Z,4.50
2017-11-10T15:07:23.955Z,3.87
2017-11-10T15:09:52.281Z,5.10
2017-11-10T15:12:19.804Z,4.67
2017-11-10T15:14:47.357Z,5.20
2017-11-10T15:17:14.883Z,5.50
2017-11-10T15:19:43.219Z,4.90
2017-11-10T15:22:10.744Z,5.03
2017-11-10T15:24:39.060Z,4.53
2017-11-10T15:27:06.580Z,4.97
2017-11-10T15:29:34.906Z,5.40
2017-11-10T15:32:02.433Z,5.03
2017-11-10T15:34:29.979Z,5.20
2017-11-10T15:36:58.274Z,6.67
2017-11-10T15:39:25.827Z,6.37
2017-11-10T15:41:53.363Z,6.50
2017-11-10T15:44:21.683Z,5.73
2017-11-10T15:46:49.214Z,7.17
2017-11-10T15:49:16.769Z,8.80
2017-11-10T15:51:45.066Z,7.00
2017-11-10T15:54:12.616Z,7.00
2017-11-10T15:56:40.149Z,8.50
2017-11-10T15:59:08.477Z,7.63
2017-11-10T16:01:36.013Z,6.73
2017-11-10T16:04:03.565Z,7.33
2017-11-10T16:06:31.091Z,6.53
2017-11-10T16:08:58.647Z,7.30
2017-11-10T16:11:26.176Z,7.43
2017-11-10T16:13:53.731Z,8.83
2017-11-10T16:16:21.260Z,6.80
2017-11-10T16:18:48.820Z,8.07
2017-11-10T16:21:16.356Z,7.53
2017-11-10T16:23:43.905Z,7.87
2017-11-10T16:26:11.436Z,7.90
2017-11-10T16:28:38.988Z,8.53
2017-11-10T16:31:06.516Z,8.43
2017-11-10T16:33:34.827Z,7.90
2017-11-10T16:36:02.381Z,9.60
2017-11-10T16:38:29.940Z,8.67
2017-11-10T16:40:57.468Z,8.00
2017-11-10T16:43:25.791Z,8.00
2017-11-10T16:45:53.325Z,9.40
2017-11-10T16:48:20.885Z,8.20
2017-11-10T16:50:48.420Z,8.50
2017-11-10T16:53:16.741Z,9.10
2017-11-10T16:55:44.269Z,9.10
2017-11-10T16:58:12.593Z,8.33
2017-11-10T17:00:40.128Z,9.50
2017-11-10T17:03:07.652Z,7.60
2017-11-10T17:05:35.983Z,8.83
2017-11-10T17:08:03.516Z,9.10
2017-11-10T17:10:31.080Z,8.30
2017-11-10T17:12:58.609Z,8.43
2017-11-10T17:15:26.929Z,7.67
2017-11-10T17:17:54.453Z,6.90
2017-11-10T17:20:22.770Z,8.50
2017-11-10T17:22:50.300Z,7.97
2017-11-10T17:25:17.863Z,7.27
2017-11-10T17:27:45.392Z,7.50
2017-11-10T17:30:12.942Z,8.13
2017-11-10T17:32:40.516Z,8.03
2017-11-10T17:35:08.039Z,8.27
2017-11-10T17:37:35.573Z,6.90
2017-11-10T17:40:03.125Z,6.80
2017-11-10T17:42:30.652Z,8.30
2017-11-10T17:44:58.981Z,8.20
2017-11-10T17:47:26.523Z,8.00
2017-11-10T17:49:54.080Z,11.93
2017-11-10T17:52:21.607Z,8.90
2017-11-10T17:54:49.159Z,9.67
2017-11-10T17:57:16.679Z,8.00
2017-11-10T17:59:44.241Z,8.80
2017-11-10T18:02:11.768Z,8.10
2017-11-10T18:04:39.319Z,8.30
2017-11-10T18:07:07.617Z,9.30
2017-11-10T18:09:35.171Z,5.87
2017-11-10T18:12:02.705Z,6.07
2017-11-10T18:14:31.036Z,6.20
2017-11-10T18:16:58.564Z,7.07
2017-11-10T18:19:26.111Z,7.73
2017-11-10T18:21:54.400Z,5.83
2017-11-10T18:24:21.955Z,6.47
2017-11-10T18:26:49.523Z,6.40
2017-11-10T18:29:17.198Z,6.23
2017-11-10T18:31:44.722Z,7.13
2017-11-10T18:34:13.054Z,6.90
2017-11-10T18:36:40.621Z,8.03
2017-11-10T18:39:08.148Z,7.13
2017-11-10T18:41:35.707Z,7.20
2017-11-10T18:44:03.240Z,6.87
2017-11-10T18:46:31.563Z,7.43
2017-11-10T18:49:04.752Z,6.27
2017-11-10T18:51:32.304Z,7.67
2017-11-10T18:53:59.846Z,7.20
2017-11-10T18:56:27.407Z,7.87
2017-11-10T18:58:54.935Z,7.80
2017-11-10T19:01:22.488Z,8.30
2017-11-10T19:03:50.028Z,7.23
2017-11-10T19:06:17.588Z,8.47
2017-11-10T19:08:45.114Z,7.53
2017-11-10T19:11:12.676Z,6.90
2017-11-10T19:13:40.220Z,10.20
2017-11-10T19:16:07.791Z,8.40
2017-11-10T19:18:35.324Z,6.93
2017-11-10T19:21:03.654Z,8.03
2017-11-10T19:23:31.202Z,7.37
2017-11-10T19:25:58.849Z,7.00
2017-11-10T19:28:26.384Z,8.33
2017-11-10T19:30:54.675Z,7.20
2017-11-10T19:33:22.255Z,6.10
2017-11-10T19:35:49.783Z,7.40
2017-11-10T19:38:18.097Z,7.00
2017-11-10T19:40:45.636Z,6.27
2017-11-10T19:43:13.183Z,7.30
2017-11-10T19:45:40.728Z,6.57
2017-11-10T19:48:08.288Z,6.93
2017-11-10T19:50:35.816Z,8.37
2017-11-10T19:53:03.368Z,9.60
2017-11-10T19:55:30.900Z,9.50
2017-11-10T19:57:58.467Z,9.13
2017-11-10T20:00:25.995Z,8.00
2017-11-10T20:02:54.327Z,6.90
2017-11-10T20:05:21.860Z,8.50
2017-11-10T20:07:49.412Z,7.17
2017-11-10T20:10:16.951Z,7.73
2017-11-10T20:12:45.271Z,7.30
2017-11-10T20:15:12.800Z,7.47
2017-11-10T20:17:40.355Z,8.20
2017-11-10T20:20:07.900Z,8.17
2017-11-10T20:22:36.222Z,7.63
2017-11-10T20:25:17.812Z,7.00
2017-11-10T20:27:45.367Z,6.70
2017-11-10T20:30:12.905Z,7.40
2017-11-10T20:32:40.440Z,6.93
2017-11-10T20:35:08.006Z,8.30
2017-11-10T20:37:36.311Z,8.87
2017-11-10T20:40:03.888Z,8.33
2017-11-10T20:42:31.424Z,7.20
2017-11-10T20:44:59.004Z,8.23
2017-11-10T20:47:26.541Z,7.33
2017-11-10T20:49:54.333Z,6.73
2017-11-10T20:52:22.695Z,8.73
2017-11-10T20:54:57.102Z,7.00
2017-11-10T20:57:24.631Z,8.27
2017-11-10T20:59:52.183Z,8.70
2017-11-10T21:02:19.783Z,8.23
2017-11-10T21:04:48.102Z,8.60
2017-11-10T21:07:15.636Z,9.00
2017-11-10T21:09:43.643Z,7.40
2017-11-10T21:12:11.983Z,10.10
2017-11-10T21:14:39.550Z,8.60
2017-11-10T21:17:07.117Z,9.43
2017-11-10T21:19:34.714Z,9.70
2017-11-10T21:22:02.244Z,8.80
2017-11-10T21:24:29.801Z,8.50
2017-11-10T21:26:57.324Z,9.27
2017-11-10T21:29:25.651Z,8.27
2017-11-10T21:31:53.178Z,10.07
2017-11-10T21:34:20.733Z,8.87
2017-11-10T21:36:48.266Z,7.50
2017-11-10T21:39:16.562Z,8.40
2017-11-10T21:41:44.123Z,10.13
2017-11-10T21:44:11.690Z,8.30
2017-11-10T21:46:40.108Z,7.93
2017-11-10T21:49:07.652Z,8.37
2017-11-10T21:51:35.216Z,9.40
2017-11-10T21:54:02.750Z,8.10
2017-11-10T21:56:30.323Z,8.50
2017-11-10T21:58:57.857Z,9.03
2017-11-10T22:01:25.424Z,9.00
2017-11-10T22:03:52.964Z,8.43
2017-11-10T22:06:21.292Z,8.27
2017-11-10T22:08:48.812Z,8.07
2017-11-10T22:11:17.137Z,8.30
2017-11-10T22:13:44.663Z,8.23
2017-11-10T22:16:12.212Z,8.20
2017-11-10T22:18:40.503Z,8.70
2017-11-10T22:21:08.058Z,7.93
2017-11-10T22:23:35.590Z,7.00
2017-11-10T22:26:03.191Z,7.57
2017-11-10T22:28:30.720Z,7.00
2017-11-10T22:51:41.076Z,6.63
2017-11-10T22:54:08.600Z,7.37
2017-11-10T22:56:36.159Z,6.37
2017-11-10T22:59:03.701Z,6.37
2017-11-10T23:01:32.043Z,6.03
2017-11-10T23:03:59.573Z,5.90
2017-11-10T23:06:27.124Z,5.30
2017-11-10T23:08:54.652Z,5.67
2017-11-10T23:11:22.988Z,6.37
2017-11-10T23:13:50.512Z,5.87
2017-11-10T23:16:18.069Z,4.87
2017-11-10T23:18:45.600Z,5.53
2017-11-10T23:21:13.159Z,5.67
2017-11-10T23:23:40.685Z,5.70
2017-11-10T23:26:08.245Z,5.90
2017-11-10T23:28:35.769Z,5.93
2017-11-10T23:31:03.327Z,5.23
2017-11-10T23:33:30.857Z,6.20
2017-11-10T23:35:59.192Z,6.50
2017-11-10T23:38:26.724Z,8.30
2017-11-10T23:40:54.280Z,7.77
2017-11-10T23:43:21.820Z,7.33
2017-11-10T23:46:13.301Z,6.97
2017-11-10T23:48:40.831Z,6.80
2017-11-10T23:51:08.392Z,7.10
2017-11-10T23:53:35.929Z,6.80
2017-11-10T23:56:04.244Z,6.00
2017-11-10T23:58:31.775Z,5.97
